createdAt,value
2022-09-18T00:01:15.186Z,10.80
2022-09-18T00:03:42.362Z,10.80
2022-09-18T00:06:21.570Z,10.80
2022-09-18T00:08:52.166Z,10.80
2022-09-18T00:11:21.263Z,10.80
2022-09-18T00:13:48.487Z,10.80
2022-09-18T00:16:17.081Z,10.80
2022-09-18T00:18:44.396Z,10.70
2022-09-18T00:21:13.980Z,10.80
2022-09-18T00:23:41.274Z,10.80
2022-09-18T00:26:09.594Z,10.90
2022-09-18T00:28:37.080Z,10.90
2022-09-18T00:31:09.869Z,10.80
2022-09-18T00:33:37.675Z,10.80
2022-09-18T00:36:06.287Z,10.80
2022-09-18T00:38:33.710Z,10.80
2022-09-18T00:41:05.041Z,10.80
2022-09-18T00:43:34.100Z,10.80
2022-09-18T00:46:25.433Z,10.90
2022-09-18T00:49:17.799Z,10.90
2022-09-18T00:51:47.927Z,10.90
2022-09-18T00:54:25.581Z,10.90
2022-09-18T00:56:55.778Z,10.80
2022-09-18T00:59:26.659Z,10.80
2022-09-18T01:01:55.296Z,10.80
2022-09-18T01:04:21.942Z,10.80
2022-09-18T01:06:55.819Z,10.80
2022-09-18T01:09:59.102Z,10.80
2022-09-18T01:12:37.890Z,10.80
2022-09-18T01:15:09.975Z,10.80
2022-09-18T01:17:47.840Z,10.80
2022-09-18T01:20:34.987Z,10.90
2022-09-18T01:23:21.474Z,10.90
2022-09-18T01:26:16.101Z,10.90
2022-09-18T01:29:04.921Z,10.90
2022-09-18T01:31:56.832Z,10.90
2022-09-18T01:34:32.136Z,10.90
2022-09-18T01:37:31.121Z,10.90
2022-09-18T01:40:05.767Z,10.90
2022-09-18T01:42:34.339Z,10.90
2022-09-18T01:48:56.898Z,10.90
2022-09-18T01:51:31.936Z,10.90
2022-09-18T01:54:08.889Z,10.90
2022-09-18T01:56:40.479Z,10.90
2022-09-18T01:59:13.032Z,10.90
2022-09-18T02:01:42.882Z,10.90
2022-09-18T02:04:14.796Z,10.80
2022-09-18T02:07:00.060Z,10.90
2022-09-18T02:09:27.776Z,10.90
2022-09-18T02:11:58.544Z,10.90
2022-09-18T02:14:34.323Z,10.90
2022-09-18T02:17:09.428Z,10.90
2022-09-18T02:19:49.170Z,10.90
2022-09-18T02:22:21.336Z,10.90
2022-09-18T02:24:51.944Z,10.90
2022-09-18T02:27:21.627Z,10.90
2022-09-18T02:29:49.049Z,10.90
2022-09-18T02:32:15.847Z,10.90
2022-09-18T02:34:42.615Z,10.90
2022-09-18T02:37:43.891Z,10.90
2022-09-18T02:40:22.148Z,10.90
2022-09-18T02:42:55.591Z,10.80
2022-09-18T02:45:51.978Z,10.90
2022-09-18T02:48:44.318Z,10.90
2022-09-18T02:51:22.723Z,10.90
2022-09-18T02:54:07.868Z,10.90
2022-09-18T02:56:50.947Z,10.90
2022-09-18T02:59:31.091Z,10.90
2022-09-18T03:01:59.255Z,10.90
2022-09-18T03:04:27.757Z,10.90
2022-09-18T03:06:54.784Z,10.80
2022-09-18T03:09:22.207Z,10.90
2022-09-18T03:11:49.839Z,10.90
2022-09-18T03:14:16.766Z,10.90
2022-09-18T03:16:43.373Z,11.00
2022-09-18T03:19:11.761Z,11.00
2022-09-18T03:21:38.466Z,11.00
2022-09-18T03:24:05.320Z,10.90
2022-09-18T03:26:32.147Z,10.90
2022-09-18T03:28:59.197Z,10.90
2022-09-18T03:31:25.903Z,10.90
2022-09-18T03:33:52.703Z,10.90
2022-09-18T03:36:19.340Z,11.00
2022-09-18T03:38:45.937Z,10.90
2022-09-18T03:41:12.676Z,10.90
2022-09-18T03:43:39.765Z,11.00
2022-09-18T03:46:06.465Z,10.90
2022-09-18T03:48:33.226Z,10.90
2022-09-18T03:50:59.866Z,10.90
2022-09-18T03:53:26.542Z,10.90
2022-09-18T03:55:53.276Z,10.80
2022-09-18T03:58:19.910Z,10.90
2022-09-18T04:00:46.627Z,10.90
2022-09-18T04:03:13.512Z,10.90
2022-09-18T04:05:40.430Z,10.90
2022-09-18T04:08:07.240Z,10.90
2022-09-18T04:10:33.878Z,10.80
2022-09-18T04:13:00.551Z,10.80
2022-09-18T04:15:27.155Z,10.80
2022-09-18T04:17:53.845Z,10.80
2022-09-18T04:20:20.515Z,10.80
2022-09-18T04:22:47.202Z,10.80
2022-09-18T04:25:13.911Z,10.80
2022-09-18T04:27:40.620Z,10.80
2022-09-18T04:30:07.780Z,10.80
2022-09-18T04:32:34.433Z,10.70
2022-09-18T04:35:01.075Z,10.70
2022-09-18T04:37:31.107Z,10.70
2022-09-18T04:39:57.744Z,10.70
2022-09-18T04:42:24.391Z,10.80
2022-09-18T04:44:51.003Z,10.80
2022-09-18T04:47:17.615Z,10.80
2022-09-18T04:49:44.300Z,10.70
2022-09-18T04:52:10.924Z,10.80
2022-09-18T04:54:38.147Z,10.70
2022-09-18T04:57:05.222Z,10.70
2022-09-18T04:59:32.060Z,10.70
2022-09-18T05:01:59.692Z,10.80
2022-09-18T05:04:26.430Z,10.70
2022-09-18T05:06:53.094Z,10.70
2022-09-18T05:09:19.688Z,10.70
2022-09-18T05:11:46.454Z,10.80
2022-09-18T05:14:13.064Z,10.70
2022-09-18T05:16:39.740Z,10.70
2022-09-18T05:19:06.637Z,10.70
2022-09-18T05:21:33.379Z,10.80
2022-09-18T05:24:00.109Z,10.70
2022-09-18T05:26:26.816Z,10.70
2022-09-18T05:28:53.437Z,10.80
2022-09-18T05:31:20.277Z,10.80
2022-09-18T05:33:47.052Z,10.70
2022-09-18T05:36:13.772Z,10.70
2022-09-18T05:38:40.416Z,10.70
2022-09-18T05:41:07.035Z,10.70
2022-09-18T05:43:33.720Z,10.70
2022-09-18T05:46:02.182Z,10.70
2022-09-18T05:48:28.849Z,10.70
2022-09-18T05:50:56.595Z,10.70
2022-09-18T05:54:13.773Z,10.70
2022-09-18T05:56:40.571Z,10.70
2022-09-18T05:59:07.247Z,10.70
2022-09-18T06:01:33.983Z,10.70
2022-09-18T06:04:02.766Z,10.70
2022-09-18T06:06:29.883Z,10.70
2022-09-18T06:08:56.935Z,10.70
2022-09-18T06:11:23.601Z,10.70
2022-09-18T06:13:52.264Z,10.70
2022-09-18T06:16:20.109Z,10.70
2022-09-18T06:18:47.191Z,10.70
2022-09-18T06:21:15.032Z,10.70
2022-09-18T06:23:42.626Z,10.70
2022-09-18T06:26:14.780Z,10.70
2022-09-18T06:28:41.842Z,10.70
2022-09-18T06:31:09.826Z,10.80
2022-09-18T06:33:36.613Z,10.80
2022-09-18T06:36:08.267Z,10.70
2022-09-18T06:38:35.065Z,10.80
2022-09-18T06:41:01.774Z,10.80
2022-09-18T06:43:28.484Z,10.80
2022-09-18T06:45:56.422Z,10.80
2022-09-18T06:48:24.219Z,10.80
2022-09-18T06:50:52.739Z,10.80
2022-09-18T06:53:19.538Z,10.80
2022-09-18T06:55:48.229Z,10.80
2022-09-18T06:58:17.263Z,10.80
2022-09-18T07:00:45.339Z,10.80
2022-09-18T07:03:12.360Z,10.90
2022-09-18T07:05:47.141Z,10.90
2022-09-18T07:08:14.095Z,10.80
2022-09-18T07:10:41.075Z,10.80
2022-09-18T07:13:08.528Z,10.90
2022-09-18T07:15:35.643Z,10.90
2022-09-18T07:18:04.154Z,10.90
2022-09-18T07:20:30.784Z,10.90
2022-09-18T07:22:59.595Z,11.00
2022-09-18T07:25:31.415Z,11.00
2022-09-18T07:28:07.885Z,11.00
2022-09-18T07:30:36.282Z,11.00
2022-09-18T07:33:05.263Z,11.10
2022-09-18T07:35:32.764Z,11.10
2022-09-18T07:38:06.043Z,11.10
2022-09-18T07:40:33.545Z,11.10
2022-09-18T07:43:08.891Z,11.20
2022-09-18T07:45:35.976Z,11.20
2022-09-18T07:48:04.342Z,11.20
2022-09-18T07:50:31.582Z,11.30
2022-09-18T07:53:02.094Z,11.30
2022-09-18T07:55:29.865Z,11.40
2022-09-18T07:58:01.156Z,11.40
2022-09-18T08:00:30.048Z,11.40
2022-09-18T08:03:11.971Z,11.40
2022-09-18T08:05:40.072Z,11.40
2022-09-18T08:08:15.930Z,11.50
2022-09-18T08:10:45.227Z,11.50
2022-09-18T08:13:12.376Z,11.50
2022-09-18T08:15:41.907Z,11.50
2022-09-18T08:18:11.543Z,11.50
2022-09-18T08:20:38.246Z,11.60
2022-09-18T08:23:06.885Z,11.60
2022-09-18T08:25:33.979Z,11.60
2022-09-18T08:28:05.864Z,11.60
2022-09-18T08:30:34.591Z,11.60
2022-09-18T08:33:03.734Z,11.70
2022-09-18T08:35:31.797Z,11.70
2022-09-18T08:37:59.476Z,11.70
2022-09-18T08:40:55.211Z,11.70
2022-09-18T08:43:27.885Z,11.70
2022-09-18T08:46:17.029Z,11.70
2022-09-18T08:49:11.002Z,11.80
2022-09-18T08:51:52.077Z,11.90
2022-09-18T08:54:40.964Z,11.90
2022-09-18T08:57:19.954Z,11.90
2022-09-18T09:00:01.578Z,12.00
2022-09-18T09:02:47.020Z,12.00
2022-09-18T09:05:16.193Z,11.90
2022-09-18T09:08:07.036Z,12.00
2022-09-18T09:10:42.333Z,12.00
2022-09-18T09:13:46.259Z,12.00
2022-09-18T09:16:36.439Z,11.90
2022-09-18T09:19:10.750Z,11.90
2022-09-18T09:21:55.733Z,11.90
2022-09-18T09:24:42.083Z,12.00
2022-09-18T09:27:31.280Z,12.00
2022-09-18T09:30:19.674Z,12.00
2022-09-18T09:33:12.131Z,11.90
2022-09-18T09:35:44.799Z,11.90
2022-09-18T09:38:30.107Z,11.90
2022-09-18T09:40:59.649Z,12.00
2022-09-18T09:43:44.807Z,12.00
2022-09-18T09:46:26.270Z,11.90
2022-09-18T09:49:13.263Z,11.90
2022-09-18T09:52:09.113Z,12.10
2022-09-18T09:54:36.217Z,12.00
2022-09-18T09:57:24.331Z,12.00
2022-09-18T09:59:59.366Z,12.00
2022-09-18T10:02:40.412Z,12.10
2022-09-18T10:05:16.271Z,12.20
2022-09-18T10:07:49.477Z,12.20
2022-09-18T10:10:40.101Z,12.30
2022-09-18T10:13:17.967Z,12.40
2022-09-18T10:15:50.169Z,12.30
2022-09-18T10:18:27.021Z,12.40
2022-09-18T10:21:03.749Z,12.40
2022-09-18T10:23:56.233Z,12.40
2022-09-18T10:26:39.066Z,12.40
2022-09-18T10:29:05.994Z,12.40
2022-09-18T10:32:00.041Z,12.40
2022-09-18T10:34:48.784Z,12.40
2022-09-18T10:37:30.123Z,12.40
2022-09-18T10:39:59.928Z,12.40
2022-09-18T10:42:35.272Z,12.50
2022-09-18T10:45:20.362Z,12.60
2022-09-18T10:47:47.208Z,12.70
2022-09-18T10:50:14.229Z,12.90
2022-09-18T10:52:48.920Z,13.00
2022-09-18T10:55:20.773Z,13.20
2022-09-18T10:57:56.628Z,13.30
2022-09-18T11:00:27.106Z,13.40
2022-09-18T11:03:22.233Z,13.50
2022-09-18T11:05:58.701Z,13.60
2022-09-18T11:08:28.702Z,13.70
2022-09-18T11:11:06.829Z,13.60
2022-09-18T11:13:43.357Z,13.60
2022-09-18T11:16:10.245Z,13.60
2022-09-18T11:18:38.165Z,13.60
2022-09-18T11:21:07.134Z,13.80
2022-09-18T11:23:35.934Z,13.80
2022-09-18T11:26:22.004Z,13.70
2022-09-18T11:28:58.901Z,13.70
2022-09-18T11:31:37.125Z,13.60
2022-09-18T11:34:06.540Z,13.50
2022-09-18T11:36:33.941Z,13.50
2022-09-18T11:39:01.901Z,13.40
2022-09-18T11:41:36.959Z,13.50
2022-09-18T11:44:12.495Z,13.50
2022-09-18T11:46:48.185Z,13.40
2022-09-18T11:49:19.556Z,13.50
2022-09-18T11:51:49.669Z,13.40
2022-09-18T11:54:35.677Z,13.50
2022-09-18T11:57:10.684Z,13.50
2022-09-18T12:00:14.955Z,13.50
2022-09-18T12:03:03.126Z,13.50
2022-09-18T12:05:30.109Z,13.50
2022-09-18T12:08:22.253Z,13.50
2022-09-18T12:11:08.167Z,13.50
2022-09-18T12:14:01.135Z,13.50
2022-09-18T12:16:52.245Z,13.50
2022-09-18T12:19:48.245Z,13.60
2022-09-18T12:22:43.472Z,13.60
2022-09-18T12:25:11.894Z,13.60
2022-09-18T12:27:58.615Z,13.60
2022-09-18T12:30:38.130Z,13.60
2022-09-18T12:33:11.790Z,13.70
2022-09-18T12:36:07.152Z,13.80
2022-09-18T12:38:43.113Z,13.80
2022-09-18T12:41:45.566Z,13.80
2022-09-18T12:44:49.638Z,13.80
2022-09-18T12:47:51.501Z,13.80
2022-09-18T12:50:39.770Z,13.80
2022-09-18T12:53:21.536Z,13.90
2022-09-18T12:55:48.129Z,13.90
2022-09-18T12:58:24.584Z,13.90
2022-09-18T13:00:52.200Z,13.90
2022-09-18T13:03:31.162Z,14.00
2022-09-18T13:06:12.188Z,14.00
2022-09-18T13:08:49.556Z,14.10
2022-09-18T13:11:44.560Z,14.10
2022-09-18T13:14:20.899Z,14.00
2022-09-18T13:17:13.253Z,13.90
2022-09-18T13:19:47.764Z,13.80
2022-09-18T13:22:19.667Z,13.70
2022-09-18T13:24:51.743Z,13.70
2022-09-18T13:27:21.300Z,13.60
2022-09-18T13:29:56.864Z,13.50
2022-09-18T13:32:36.726Z,13.50
2022-09-18T13:35:13.196Z,13.50
2022-09-18T13:37:41.550Z,13.50
2022-09-18T13:40:30.991Z,13.40
2022-09-18T13:42:57.901Z,13.50
2022-09-18T13:45:27.078Z,13.40
2022-09-18T13:48:31.511Z,13.40
2022-09-18T13:51:07.894Z,13.40
2022-09-18T13:53:40.681Z,13.30
2022-09-18T13:56:17.646Z,13.30
2022-09-18T13:58:52.627Z,13.30
2022-09-18T14:01:41.254Z,13.30
2022-09-18T14:04:43.503Z,13.40
2022-09-18T14:07:28.366Z,13.20
2022-09-18T14:10:03.007Z,13.20
2022-09-18T14:12:33.034Z,13.20
2022-09-18T14:15:04.963Z,13.20
2022-09-18T14:17:33.789Z,13.10
2022-09-18T14:20:08.213Z,13.20
2022-09-18T14:22:38.118Z,13.20
2022-09-18T14:25:09.821Z,13.10
2022-09-18T14:27:58.082Z,13.10
2022-09-18T14:30:27.437Z,13.10
2022-09-18T14:33:16.300Z,13.00
2022-09-18T14:35:42.987Z,13.00
2022-09-18T14:38:35.608Z,13.00
2022-09-18T14:41:24.856Z,12.90
2022-09-18T14:44:00.223Z,12.90
2022-09-18T14:46:28.405Z,12.80
2022-09-18T14:48:55.599Z,12.70
2022-09-18T14:51:24.707Z,12.70
2022-09-18T14:53:56.999Z,12.60
2022-09-18T14:56:34.395Z,12.60
2022-09-18T14:59:05.610Z,12.60
2022-09-18T15:01:34.713Z,12.50
2022-09-18T15:04:04.102Z,12.40
2022-09-18T15:06:39.903Z,12.50
2022-09-18T15:09:09.153Z,12.50
2022-09-18T15:11:58.462Z,12.40
2022-09-18T15:14:43.949Z,12.40
2022-09-18T15:17:21.499Z,12.50
2022-09-18T15:19:59.024Z,12.50
2022-09-18T15:22:27.500Z,12.50
2022-09-18T15:24:55.197Z,12.50
2022-09-18T15:27:23.670Z,12.40
2022-09-18T15:30:02.371Z,12.40
2022-09-18T15:32:38.190Z,12.40
2022-09-18T15:35:08.613Z,12.40
2022-09-18T15:37:38.160Z,12.30
2022-09-18T15:40:07.013Z,12.30
2022-09-18T15:42:38.413Z,12.30
2022-09-18T15:45:08.167Z,12.30
2022-09-18T15:47:37.858Z,12.30
2022-09-18T15:50:13.364Z,12.30
2022-09-18T15:52:58.049Z,12.20
2022-09-18T15:55:46.576Z,12.20
2022-09-18T15:58:31.472Z,12.20
2022-09-18T16:01:01.252Z,12.20
2022-09-18T16:03:30.128Z,12.20
2022-09-18T16:06:00.386Z,12.10
2022-09-18T16:08:30.211Z,12.10
2022-09-18T16:10:59.588Z,12.10
2022-09-18T16:13:26.161Z,12.10
2022-09-18T16:16:08.216Z,12.00
2022-09-18T16:18:47.742Z,12.00
2022-09-18T16:21:14.436Z,12.00
2022-09-18T16:23:54.748Z,12.10
2022-09-18T16:26:36.363Z,12.10
2022-09-18T16:29:19.120Z,12.00
2022-09-18T16:31:47.135Z,12.00
2022-09-18T16:34:23.872Z,11.90
2022-09-18T16:36:51.783Z,12.00
2022-09-18T16:39:20.953Z,12.00
2022-09-18T16:41:47.955Z,12.10
2022-09-18T16:44:15.919Z,12.00
2022-09-18T16:46:55.396Z,11.90
2022-09-18T16:49:26.244Z,12.00
2022-09-18T16:51:55.103Z,12.00
2022-09-18T16:54:21.816Z,12.00
2022-09-18T16:56:55.299Z,12.00
2022-09-18T16:59:24.915Z,11.90
2022-09-18T17:02:03.505Z,11.90
2022-09-18T17:04:31.127Z,11.90
2022-09-18T17:06:57.844Z,11.90
2022-09-18T17:09:24.892Z,11.80
2022-09-18T17:11:53.118Z,11.80
2022-09-18T17:14:20.276Z,11.80
2022-09-18T17:16:47.384Z,11.80
2022-09-18T17:19:14.333Z,11.80
2022-09-18T17:21:41.633Z,11.80
2022-09-18T17:24:08.918Z,11.80
2022-09-18T17:26:37.202Z,11.80
2022-09-18T17:29:04.455Z,11.80
2022-09-18T17:31:31.360Z,11.80
2022-09-18T17:33:58.100Z,11.70
2022-09-18T17:36:25.086Z,11.60
2022-09-18T17:38:51.890Z,11.60
2022-09-18T17:41:19.618Z,11.60
2022-09-18T17:43:54.211Z,11.50
2022-09-18T17:46:21.131Z,11.50
2022-09-18T17:48:47.842Z,11.50
2022-09-18T17:51:18.348Z,11.60
2022-09-18T17:53:47.821Z,11.60
2022-09-18T17:56:19.638Z,11.60
2022-09-18T17:58:46.788Z,11.50
2022-09-18T18:01:16.094Z,11.50
2022-09-18T18:03:42.777Z,11.50
2022-09-18T18:06:11.043Z,11.40
2022-09-18T18:08:38.338Z,11.50
2022-09-18T18:11:07.487Z,11.40
2022-09-18T18:13:36.936Z,11.50
2022-09-18T18:16:12.603Z,11.40
2022-09-18T18:18:40.100Z,11.50
2022-09-18T18:21:07.893Z,11.50
2022-09-18T18:23:36.079Z,11.50
2022-09-18T18:26:07.734Z,11.50
2022-09-18T18:28:36.287Z,11.50
2022-09-18T18:31:11.292Z,11.50
2022-09-18T18:33:40.129Z,11.50
2022-09-18T18:36:07.583Z,11.40
2022-09-18T18:38:34.401Z,11.50
2022-09-18T18:41:03.601Z,11.30
2022-09-18T18:43:31.492Z,11.30
2022-09-18T18:45:58.418Z,11.30
2022-09-18T18:48:25.275Z,11.20
2022-09-18T18:50:57.128Z,11.20
2022-09-18T18:53:23.988Z,11.20
2022-09-18T18:55:51.475Z,11.20
2022-09-18T18:58:19.042Z,11.10
2022-09-18T19:00:45.783Z,11.10
2022-09-18T19:03:12.505Z,11.10
2022-09-18T19:05:40.746Z,11.10
2022-09-18T19:08:07.772Z,11.10
2022-09-18T19:10:34.398Z,11.10
2022-09-18T19:13:01.033Z,11.10
2022-09-18T19:15:28.452Z,11.10
2022-09-18T19:17:56.378Z,10.90
2022-09-18T19:20:23.164Z,11.00
2022-09-18T19:22:56.713Z,11.00
2022-09-18T19:25:25.393Z,11.00
2022-09-18T19:27:58.730Z,11.00
2022-09-18T19:30:26.121Z,11.10
2022-09-18T19:32:56.285Z,11.00
2022-09-18T19:35:23.211Z,11.00
2022-09-18T19:37:49.889Z,11.00
2022-09-18T19:40:17.584Z,11.00
2022-09-18T19:42:56.888Z,11.00
2022-09-18T19:45:26.709Z,11.00
2022-09-18T19:47:53.687Z,11.00
2022-09-18T19:50:35.398Z,11.00
2022-09-18T19:53:02.343Z,11.00
2022-09-18T19:55:29.283Z,11.00
2022-09-18T19:57:59.197Z,10.90
2022-09-18T20:00:26.559Z,10.60
2022-09-18T20:02:57.801Z,10.60
2022-09-18T20:05:24.556Z,10.50
2022-09-18T20:07:51.254Z,10.40
2022-09-18T20:10:17.934Z,10.40
2022-09-18T20:12:44.958Z,10.40
2022-09-18T20:15:12.146Z,10.30
2022-09-18T20:17:38.915Z,10.30
2022-09-18T20:20:08.812Z,10.30
2022-09-18T20:22:38.348Z,10.30
2022-09-18T20:25:06.110Z,10.30
2022-09-18T20:27:36.965Z,10.20
2022-09-18T20:30:05.733Z,10.20
2022-09-18T20:32:32.377Z,10.20
2022-09-18T20:34:59.423Z,10.20
2022-09-18T20:37:32.906Z,10.20
2022-09-18T20:40:04.445Z,10.20
2022-09-18T20:42:32.347Z,10.20
2022-09-18T20:45:02.197Z,10.10
2022-09-18T20:47:35.016Z,10.10
2022-09-18T20:50:06.888Z,10.00
2022-09-18T20:52:36.192Z,10.00
2022-09-18T20:55:12.988Z,10.00
2022-09-18T20:57:40.721Z,10.10
2022-09-18T21:00:09.976Z,10.00
2022-09-18T21:02:38.044Z,10.00
2022-09-18T21:05:14.541Z,10.00
2022-09-18T21:07:43.729Z,9.90
2022-09-18T21:10:12.724Z,9.70
2022-09-18T21:12:39.512Z,9.80
2022-09-18T21:15:08.812Z,9.90
2022-09-18T21:17:38.127Z,9.90
2022-09-18T21:20:06.211Z,9.90
2022-09-18T21:22:33.325Z,9.90
2022-09-18T21:24:59.979Z,9.90
2022-09-18T21:27:26.976Z,9.80
2022-09-18T21:29:56.373Z,9.80
2022-09-18T21:32:23.419Z,9.80
2022-09-18T21:34:52.709Z,9.80
2022-09-18T21:37:19.336Z,9.80
2022-09-18T21:39:46.081Z,9.90
2022-09-18T21:42:12.771Z,9.90
2022-09-18T21:44:39.669Z,9.90
2022-09-18T21:47:08.263Z,9.80
2022-09-18T21:49:35.123Z,9.80
2022-09-18T21:52:04.947Z,9.80
2022-09-18T21:54:32.146Z,9.80
2022-09-18T21:56:59.145Z,9.80
2022-09-18T21:59:27.880Z,9.70
2022-09-18T22:01:55.221Z,9.70
2022-09-18T22:04:26.156Z,9.50
2022-09-18T22:06:55.382Z,9.60
2022-09-18T22:09:27.693Z,9.60
2022-09-18T22:11:55.811Z,9.60
2022-09-18T22:14:25.666Z,9.60
2022-09-18T22:16:53.698Z,9.60
2022-09-18T22:19:20.582Z,9.50
2022-09-18T22:21:49.778Z,9.50
2022-09-18T22:24:19.393Z,9.50
2022-09-18T22:26:49.258Z,9.50
2022-09-18T22:29:21.916Z,9.40
2022-09-18T22:31:49.507Z,9.40
2022-09-18T22:34:20.056Z,9.40
2022-09-18T22:36:48.048Z,9.30
2022-09-18T22:39:16.258Z,9.30
2022-09-18T22:41:43.971Z,9.30
2022-09-18T22:44:11.045Z,9.20
2022-09-18T22:46:40.135Z,9.20
2022-09-18T22:49:08.749Z,9.10
2022-09-18T22:51:35.810Z,9.10
2022-09-18T22:54:07.419Z,9.10
2022-09-18T22:56:38.778Z,9.10
2022-09-18T22:59:05.435Z,9.20
2022-09-18T23:01:41.555Z,9.10
2022-09-18T23:04:08.828Z,9.00
2022-09-18T23:06:36.326Z,9.10
2022-09-18T23:09:04.622Z,9.00
2022-09-18T23:11:33.477Z,9.00
2022-09-18T23:14:03.476Z,9.00
2022-09-18T23:16:31.882Z,9.00
2022-09-18T23:19:02.104Z,9.00
2022-09-18T23:21:32.004Z,8.90
2022-09-18T23:24:04.867Z,8.90
2022-09-18T23:26:36.621Z,8.90
2022-09-18T23:29:06.513Z,8.90
2022-09-18T23:31:35.512Z,8.80
2022-09-18T23:34:04.892Z,8.80
2022-09-18T23:36:35.753Z,8.80
2022-09-18T23:39:07.404Z,8.80
2022-09-18T23:41:34.566Z,8.70
2022-09-18T23:44:02.486Z,8.70
2022-09-18T23:46:29.296Z,8.70
2022-09-18T23:48:56.012Z,8.70
2022-09-18T23:51:24.787Z,8.70
2022-09-18T23:53:52.151Z,8.70
2022-09-18T23:56:19.187Z,8.70
2022-09-18T23:58:46.067Z,8.70
